Time;durP1;ratioP1;P1;durP2;ratioP2;P2;SDS_P1;SDS_P2;PMS_P1;PMS_P2;Temp;Humidity;BMP_temperature;BMP_pressure;BME280_temperature;BME280_humidity;BME280_pressure;Samples;Min_cycle;Max_cycle;Signal;HPM_P1;HPM_P2
2023/08/14 00:01:19;;;;;;;11.45;9.82;;;;;;;;;;5058421;28;20205;-65
2023/08/14 00:03:47;;;;;;;43.00;33.53;;;;;;;;;;5055251;28;20289;-67
2023/08/14 00:06:14;;;;;;;20.42;17.17;;;;;;;;;;5059503;28;20321;-67
2023/08/14 00:08:42;;;;;;;13.57;12.18;;;;;;;;;;5059430;28;20301;-66
2023/08/14 00:11:09;;;;;;;17.40;15.48;;;;;;;;;;5054992;28;20577;-66
2023/08/14 00:13:49;;;;;;;13.02;11.43;;;;;;;;;;5059708;28;20205;-66
2023/08/14 00:16:17;;;;;;;11.80;10.57;;;;;;;;;;5059562;28;20240;-67
2023/08/14 00:18:45;;;;;;;11.52;10.32;;;;;;;;;;5056572;28;20229;-67
2023/08/14 00:21:12;;;;;;;12.18;10.82;;;;;;;;;;5058348;28;20246;-66
2023/08/14 00:23:39;;;;;;;14.13;11.55;;;;;;;;;;5059933;28;20205;-68
2023/08/14 00:26:07;;;;;;;16.17;12.45;;;;;;;;;;5057933;28;20652;-67
2023/08/14 00:28:34;;;;;;;27.90;12.45;;;;;;;;;;5060081;28;20210;-66
2023/08/14 00:31:02;;;;;;;12.02;10.85;;;;;;;;;;5059931;28;20209;-66
2023/08/14 00:33:29;;;;;;;23.35;11.75;;;;;;;;;;5061920;28;20206;-66
2023/08/14 00:35:56;;;;;;;38.58;11.10;;;;;;;;;;5055214;28;20218;-67
2023/08/14 00:38:24;;;;;;;35.13;9.95;;;;;;;;;;5061758;28;20629;-68
2023/08/14 00:40:52;;;;;;;29.83;10.38;;;;;;;;;;5055296;28;20251;-64
2023/08/14 00:43:21;;;;;;;12.52;10.23;;;;;;;;;;5052465;28;20199;-67
2023/08/14 00:45:51;;;;;;;11.98;9.73;;;;;;;;;;5056748;28;20222;-67
2023/08/14 00:48:19;;;;;;;10.80;9.80;;;;;;;;;;5059055;28;20214;-67
2023/08/14 00:50:46;;;;;;;16.67;11.80;;;;;;;;;;5057002;28;20611;-65
2023/08/14 00:53:14;;;;;;;15.65;11.45;;;;;;;;;;5055766;28;20297;-66
2023/08/14 00:55:42;;;;;;;23.58;12.50;;;;;;;;;;5057306;28;20221;-67
2023/08/14 00:58:09;;;;;;;12.82;11.63;;;;;;;;;;5054563;28;20229;-66
2023/08/14 01:00:37;;;;;;;17.63;12.15;;;;;;;;;;5056794;28;20687;-66
2023/08/14 01:03:04;;;;;;;13.55;12.25;;;;;;;;;;5050795;28;20640;-66
2023/08/14 01:05:32;;;;;;;14.00;12.30;;;;;;;;;;5056789;28;20704;-68
2023/08/14 01:07:59;;;;;;;22.83;12.75;;;;;;;;;;5057658;28;20270;-68
2023/08/14 01:10:31;;;;;;;19.88;11.77;;;;;;;;;;5060513;28;20209;-67
2023/08/14 01:13:09;;;;;;;12.90;11.60;;;;;;;;;;5053898;28;20200;-66
2023/08/14 01:15:40;;;;;;;24.60;11.80;;;;;;;;;;5059152;28;20614;-68
2023/08/14 01:18:09;;;;;;;14.20;11.80;;;;;;;;;;5056503;28;20222;-64
2023/08/14 01:20:38;;;;;;;14.32;11.00;;;;;;;;;;5060526;28;20200;-67
2023/08/14 01:23:06;;;;;;;13.48;11.80;;;;;;;;;;5056659;28;20206;-67
2023/08/14 01:25:37;;;;;;;14.10;12.20;;;;;;;;;;5060134;28;20722;-68
2023/08/14 01:28:05;;;;;;;16.95;13.45;;;;;;;;;;5054624;28;20229;-68
2023/08/14 01:30:32;;;;;;;13.48;12.23;;;;;;;;;;5058662;28;20201;-67
2023/08/14 01:33:00;;;;;;;15.55;13.20;;;;;;;;;;5057027;28;20588;-67
2023/08/14 01:35:31;;;;;;;26.08;13.80;;;;;;;;;;5058594;28;20252;-67
2023/08/14 01:38:17;;;;;;;23.58;14.50;;;;;;;;;;5057249;28;20310;-67
2023/08/14 01:40:47;;;;;;;17.52;15.82;;;;;;;;;;5056154;28;20205;-67
2023/08/14 01:43:17;;;;;;;25.50;18.10;;;;;;;;;;5051306;28;20612;-66
2023/08/14 01:45:45;;;;;;;17.20;15.30;;;;;;;;;;5059518;28;20244;-67
2023/08/14 01:48:15;;;;;;;18.02;14.15;;;;;;;;;;5057024;28;20263;-66
2023/08/14 01:50:43;;;;;;;11.68;10.50;;;;;;;;;;5058193;28;20197;-67
2023/08/14 01:53:11;;;;;;;12.23;10.95;;;;;;;;;;5055901;28;20267;-65
2023/08/14 01:55:38;;;;;;;7.05;5.53;;;;;;;;;;5056384;28;20225;-66
2023/08/14 01:58:05;;;;;;;7.72;6.22;;;;;;;;;;5046786;28;20226;-64
2023/08/14 02:00:34;;;;;;;8.02;7.18;;;;;;;;;;5055174;28;20304;-67
2023/08/14 02:03:01;;;;;;;5.40;5.00;;;;;;;;;;5053062;28;20202;-66
2023/08/14 02:05:29;;;;;;;8.52;5.20;;;;;;;;;;5079566;28;20324;-65
2023/08/14 02:07:56;;;;;;;7.35;4.85;;;;;;;;;;5073367;28;20210;-66
2023/08/14 02:10:24;;;;;;;7.43;4.78;;;;;;;;;;5057267;28;20217;-66
2023/08/14 02:12:51;;;;;;;8.68;5.13;;;;;;;;;;5059199;28;20207;-65
2023/08/14 02:15:20;;;;;;;5.47;4.80;;;;;;;;;;5057855;28;20205;-66
2023/08/14 02:17:47;;;;;;;5.82;5.00;;;;;;;;;;5060443;28;20309;-65
2023/08/14 02:20:15;;;;;;;6.15;5.65;;;;;;;;;;5057521;28;20205;-67
2023/08/14 02:22:42;;;;;;;6.55;5.32;;;;;;;;;;5060817;28;20281;-65
2023/08/14 02:25:09;;;;;;;8.25;5.43;;;;;;;;;;5053931;28;20203;-66
2023/08/14 02:27:37;;;;;;;8.88;5.68;;;;;;;;;;5055768;28;20216;-66
2023/08/14 02:30:04;;;;;;;7.78;6.72;;;;;;;;;;5053344;28;20573;-64
2023/08/14 02:32:32;;;;;;;9.25;7.25;;;;;;;;;;5056238;28;20197;-66
2023/08/14 02:34:59;;;;;;;9.48;7.32;;;;;;;;;;5055717;28;20355;-65
2023/08/14 02:37:26;;;;;;;9.70;7.65;;;;;;;;;;5055469;28;20217;-66
2023/08/14 02:39:54;;;;;;;8.63;7.82;;;;;;;;;;5059276;28;20560;-65
2023/08/14 02:42:21;;;;;;;11.60;8.55;;;;;;;;;;5059405;28;20213;-65
2023/08/14 02:44:50;;;;;;;8.65;7.85;;;;;;;;;;5060916;28;20206;-66
2023/08/14 02:47:18;;;;;;;8.32;7.60;;;;;;;;;;5056555;28;20232;-66
2023/08/14 02:49:45;;;;;;;9.20;8.30;;;;;;;;;;5060463;28;20225;-66
2023/08/14 02:52:12;;;;;;;8.43;7.72;;;;;;;;;;5058677;28;20301;-65
2023/08/14 02:54:40;;;;;;;10.68;8.05;;;;;;;;;;5057572;28;20213;-66
2023/08/14 02:57:07;;;;;;;9.15;7.55;;;;;;;;;;5054443;28;20236;-67
2023/08/14 02:59:35;;;;;;;8.98;8.07;;;;;;;;;;5057191;28;20229;-67
2023/08/14 03:02:02;;;;;;;8.25;7.45;;;;;;;;;;5049678;28;20211;-65
2023/08/14 03:04:30;;;;;;;10.50;9.32;;;;;;;;;;5056036;28;20288;-68
2023/08/14 03:06:57;;;;;;;13.70;10.75;;;;;;;;;;5041109;28;20283;-67
2023/08/14 03:09:25;;;;;;;12.68;8.90;;;;;;;;;;5057318;28;20270;-65
2023/08/14 03:11:52;;;;;;;9.77;8.48;;;;;;;;;;5060340;28;20205;-66
2023/08/14 03:14:19;;;;;;;9.55;8.65;;;;;;;;;;5055970;28;20224;-66
2023/08/14 03:16:47;;;;;;;11.45;8.40;;;;;;;;;;5051210;28;20221;-64
2023/08/14 03:19:14;;;;;;;9.98;8.98;;;;;;;;;;5054840;28;20805;-66
2023/08/14 03:21:42;;;;;;;10.95;9.15;;;;;;;;;;5060227;28;20212;-67
2023/08/14 03:24:09;;;;;;;10.00;7.78;;;;;;;;;;5056390;28;20201;-65
2023/08/14 03:26:36;;;;;;;11.77;8.98;;;;;;;;;;5059838;28;20368;-67
2023/08/14 03:29:04;;;;;;;10.73;9.10;;;;;;;;;;5055677;28;20206;-65
2023/08/14 03:31:32;;;;;;;10.45;8.75;;;;;;;;;;5054021;28;20202;-67
2023/08/14 03:33:59;;;;;;;9.35;8.40;;;;;;;;;;5057057;28;20667;-65
2023/08/14 03:36:26;;;;;;;10.13;8.35;;;;;;;;;;5056738;28;20226;-67
2023/08/14 03:38:54;;;;;;;8.35;7.55;;;;;;;;;;5056179;28;20232;-66
2023/08/14 03:41:22;;;;;;;8.02;7.20;;;;;;;;;;5058614;28;20209;-65
2023/08/14 03:43:50;;;;;;;7.63;6.93;;;;;;;;;;5055380;28;20290;-65
2023/08/14 03:46:17;;;;;;;8.55;7.30;;;;;;;;;;5057904;28;20225;-66
2023/08/14 03:48:45;;;;;;;9.32;8.23;;;;;;;;;;5059113;28;20234;-66
2023/08/14 03:51:12;;;;;;;8.45;7.57;;;;;;;;;;5049757;28;20207;-65
2023/08/14 03:53:39;;;;;;;7.65;7.05;;;;;;;;;;5047499;28;20219;-66
2023/08/14 03:56:07;;;;;;;8.10;7.32;;;;;;;;;;5054093;28;20225;-64
2023/08/14 03:58:34;;;;;;;7.45;6.80;;;;;;;;;;5051656;28;21312;-66
2023/08/14 04:01:01;;;;;;;7.43;6.72;;;;;;;;;;5041062;28;20912;-65
2023/08/14 04:03:31;;;;;;;7.10;6.47;;;;;;;;;;5050652;28;20202;-63
2023/08/14 04:05:59;;;;;;;7.80;6.70;;;;;;;;;;5049992;28;20246;-67
2023/08/14 04:08:26;;;;;;;7.88;7.18;;;;;;;;;;5054640;28;20218;-64
2023/08/14 04:10:59;;;;;;;6.95;6.03;;;;;;;;;;5055842;28;20214;-64
2023/08/14 04:13:27;;;;;;;7.90;7.20;;;;;;;;;;5053191;28;20210;-65
2023/08/14 04:16:00;;;;;;;7.35;6.75;;;;;;;;;;5052556;28;20233;-65
2023/08/14 04:18:31;;;;;;;6.82;6.22;;;;;;;;;;5057242;28;20483;-66
2023/08/14 04:20:58;;;;;;;7.82;7.03;;;;;;;;;;5056742;28;20202;-65
2023/08/14 04:23:26;;;;;;;7.90;7.20;;;;;;;;;;5060964;28;20262;-67
2023/08/14 04:25:53;;;;;;;8.57;7.70;;;;;;;;;;5061699;28;20243;-64
2023/08/14 04:28:21;;;;;;;7.60;6.93;;;;;;;;;;5053411;28;20209;-66
2023/08/14 04:30:49;;;;;;;7.85;7.05;;;;;;;;;;5053336;28;20214;-66
2023/08/14 04:33:17;;;;;;;8.70;7.80;;;;;;;;;;5053637;28;20302;-65
2023/08/14 04:35:44;;;;;;;8.23;7.47;;;;;;;;;;5050632;28;20228;-64
2023/08/14 04:38:11;;;;;;;7.65;6.95;;;;;;;;;;5054505;28;21133;-66
2023/08/14 04:40:40;;;;;;;8.88;7.50;;;;;;;;;;5056285;28;20264;-66
2023/08/14 04:43:07;;;;;;;7.60;7.00;;;;;;;;;;5056669;28;20663;-66
2023/08/14 04:45:34;;;;;;;7.43;6.70;;;;;;;;;;5055188;28;20249;-66
2023/08/14 04:48:02;;;;;;;6.53;6.03;;;;;;;;;;5058195;28;20262;-66
2023/08/14 04:50:29;;;;;;;6.75;6.05;;;;;;;;;;5051689;28;20202;-66
2023/08/14 04:52:56;;;;;;;6.28;5.78;;;;;;;;;;5076813;28;20277;-63
2023/08/14 04:55:24;;;;;;;6.90;6.22;;;;;;;;;;5051542;28;20236;-66
2023/08/14 04:57:51;;;;;;;6.95;6.25;;;;;;;;;;5055001;28;20631;-66
2023/08/14 05:00:19;;;;;;;6.95;6.35;;;;;;;;;;5052727;28;20226;-65
2023/08/14 05:02:46;;;;;;;6.80;6.10;;;;;;;;;;5051619;28;20205;-66
2023/08/14 05:05:14;;;;;;;6.40;5.78;;;;;;;;;;5055433;28;20325;-67
2023/08/14 05:07:41;;;;;;;8.75;6.00;;;;;;;;;;5055688;28;20679;-64
2023/08/14 05:10:08;;;;;;;7.07;6.07;;;;;;;;;;5057691;28;20210;-65
2023/08/14 05:12:36;;;;;;;6.60;6.00;;;;;;;;;;5057428;28;20212;-65
2023/08/14 05:15:03;;;;;;;7.15;6.55;;;;;;;;;;5054353;28;20206;-65
2023/08/14 05:17:31;;;;;;;6.72;6.07;;;;;;;;;;5056997;28;20637;-66
2023/08/14 05:19:58;;;;;;;7.50;6.60;;;;;;;;;;5056636;28;20231;-66
2023/08/14 05:22:25;;;;;;;8.25;6.68;;;;;;;;;;5057271;28;20634;-65
2023/08/14 05:24:52;;;;;;;8.77;6.72;;;;;;;;;;5058629;28;20210;-65
2023/08/14 05:27:20;;;;;;;7.38;6.68;;;;;;;;;;5058609;28;20222;-66
2023/08/14 05:29:47;;;;;;;7.07;6.47;;;;;;;;;;5058262;28;20236;-66
2023/08/14 05:32:15;;;;;;;7.30;6.70;;;;;;;;;;5057192;28;20608;-66
2023/08/14 05:34:42;;;;;;;7.20;6.60;;;;;;;;;;5051356;28;20667;-67
2023/08/14 05:37:10;;;;;;;7.13;6.00;;;;;;;;;;5053391;28;20229;-65
2023/08/14 05:39:37;;;;;;;8.27;6.40;;;;;;;;;;5054746;28;20222;-66
2023/08/14 05:42:04;;;;;;;7.45;6.13;;;;;;;;;;5054313;28;20204;-65
2023/08/14 05:44:32;;;;;;;6.78;6.03;;;;;;;;;;5055364;28;20209;-66
2023/08/14 05:46:59;;;;;;;6.45;5.95;;;;;;;;;;5056509;28;20223;-65
2023/08/14 05:49:27;;;;;;;6.97;5.78;;;;;;;;;;5054219;28;20202;-65
2023/08/14 05:51:54;;;;;;;6.32;5.82;;;;;;;;;;5055666;28;20218;-65
2023/08/14 05:54:22;;;;;;;6.35;5.70;;;;;;;;;;5060007;28;21377;-65
2023/08/14 05:56:50;;;;;;;6.10;5.53;;;;;;;;;;5052483;28;20217;-65
2023/08/14 05:59:17;;;;;;;6.03;5.53;;;;;;;;;;5053040;28;20261;-65
2023/08/14 06:01:45;;;;;;;6.75;5.70;;;;;;;;;;5057676;28;21117;-66
2023/08/14 06:04:13;;;;;;;6.20;5.60;;;;;;;;;;5057828;28;20267;-66
2023/08/14 06:06:40;;;;;;;6.13;5.53;;;;;;;;;;5057466;28;20217;-66
2023/08/14 06:09:07;;;;;;;5.78;5.05;;;;;;;;;;5062465;28;20221;-64
2023/08/14 06:11:35;;;;;;;7.55;4.90;;;;;;;;;;5063409;28;20208;-65
2023/08/14 06:14:03;;;;;;;5.63;5.13;;;;;;;;;;5065700;28;20235;-65
2023/08/14 06:16:30;;;;;;;6.40;4.72;;;;;;;;;;5057530;28;20225;-65
2023/08/14 06:18:57;;;;;;;5.55;5.05;;;;;;;;;;5059421;28;20313;-65
2023/08/14 06:21:25;;;;;;;5.65;4.70;;;;;;;;;;5058883;28;20555;-66
2023/08/14 06:23:52;;;;;;;5.13;4.63;;;;;;;;;;5069585;28;20232;-64
2023/08/14 06:26:19;;;;;;;6.03;4.90;;;;;;;;;;5062311;28;20769;-67
2023/08/14 06:28:46;;;;;;;6.68;5.00;;;;;;;;;;5060757;28;20202;-65
2023/08/14 06:31:14;;;;;;;4.82;4.43;;;;;;;;;;5062005;28;20206;-65
2023/08/14 06:33:43;;;;;;;5.85;3.95;;;;;;;;;;5060725;28;20205;-66
2023/08/14 06:36:11;;;;;;;4.35;3.92;;;;;;;;;;5060041;28;20221;-64
2023/08/14 06:38:38;;;;;;;4.82;3.85;;;;;;;;;;5054914;28;20213;-65
2023/08/14 06:41:06;;;;;;;3.80;3.55;;;;;;;;;;5060106;28;20642;-67
2023/08/14 06:43:34;;;;;;;4.35;4.05;;;;;;;;;;5060313;28;20561;-66
2023/08/14 06:46:01;;;;;;;4.63;4.05;;;;;;;;;;5061991;28;20605;-65
2023/08/14 06:48:30;;;;;;;5.07;4.32;;;;;;;;;;5061048;28;20745;-64
2023/08/14 06:50:59;;;;;;;4.43;4.03;;;;;;;;;;5059898;28;20263;-66
2023/08/14 06:53:26;;;;;;;4.63;3.75;;;;;;;;;;5058034;28;20470;-67
2023/08/14 06:55:55;;;;;;;7.10;3.85;;;;;;;;;;5059049;28;20898;-64
2023/08/14 06:58:22;;;;;;;4.65;4.25;;;;;;;;;;5057177;28;20245;-65
2023/08/14 07:00:50;;;;;;;3.95;3.55;;;;;;;;;;5059395;28;20237;-65
2023/08/14 07:03:17;;;;;;;5.03;3.97;;;;;;;;;;5067254;28;20209;-66
2023/08/14 07:05:45;;;;;;;6.13;4.35;;;;;;;;;;5057482;28;20222;-66
2023/08/14 07:08:12;;;;;;;4.10;3.70;;;;;;;;;;5058413;28;20218;-66
2023/08/14 07:10:40;;;;;;;4.75;4.28;;;;;;;;;;5058042;28;20659;-65
2023/08/14 07:13:08;;;;;;;5.03;4.15;;;;;;;;;;5054693;28;20625;-65
2023/08/14 07:15:35;;;;;;;4.20;3.80;;;;;;;;;;5060537;28;20233;-67
2023/08/14 07:18:06;;;;;;;4.10;3.80;;;;;;;;;;5056953;28;20213;-66
2023/08/14 07:20:34;;;;;;;3.90;3.60;;;;;;;;;;5051934;28;20226;-66
2023/08/14 07:23:01;;;;;;;4.35;3.63;;;;;;;;;;5060599;28;20679;-62
2023/08/14 07:25:29;;;;;;;3.92;3.63;;;;;;;;;;5060429;28;20225;-65
2023/08/14 07:27:56;;;;;;;3.97;3.60;;;;;;;;;;5057512;28;20202;-65
2023/08/14 07:30:23;;;;;;;4.13;3.72;;;;;;;;;;5058533;28;20203;-64
2023/08/14 07:32:51;;;;;;;3.90;3.60;;;;;;;;;;5056544;28;20236;-67
2023/08/14 07:35:19;;;;;;;4.95;3.72;;;;;;;;;;5060650;28;20212;-66
2023/08/14 07:37:46;;;;;;;4.38;4.03;;;;;;;;;;5057882;28;20675;-65
2023/08/14 07:40:13;;;;;;;5.75;3.40;;;;;;;;;;5061148;28;20769;-68
2023/08/14 07:42:41;;;;;;;4.75;3.70;;;;;;;;;;5063757;28;20344;-64
2023/08/14 07:45:08;;;;;;;3.88;3.47;;;;;;;;;;5063398;28;20202;-66
2023/08/14 07:47:36;;;;;;;4.93;3.63;;;;;;;;;;5059312;28;20198;-65
2023/08/14 07:50:03;;;;;;;4.38;3.53;;;;;;;;;;5056597;28;20226;-66
2023/08/14 07:52:30;;;;;;;3.78;3.47;;;;;;;;;;5061583;28;20233;-67
2023/08/14 07:54:58;;;;;;;3.65;3.35;;;;;;;;;;5059285;28;20209;-64
2023/08/14 07:57:25;;;;;;;3.70;3.13;;;;;;;;;;5060360;28;20627;-66
2023/08/14 07:59:52;;;;;;;3.45;3.20;;;;;;;;;;5051937;28;20232;-65
2023/08/14 08:02:20;;;;;;;3.50;3.17;;;;;;;;;;5057013;28;20232;-67
2023/08/14 08:04:48;;;;;;;3.33;3.13;;;;;;;;;;5059717;28;20198;-67
2023/08/14 08:07:16;;;;;;;4.65;3.20;;;;;;;;;;5056922;28;20222;-66
2023/08/14 08:09:44;;;;;;;4.18;3.30;;;;;;;;;;5054471;28;20210;-65
2023/08/14 08:12:11;;;;;;;3.83;2.97;;;;;;;;;;5054950;28;21411;-65
2023/08/14 08:14:39;;;;;;;4.22;3.40;;;;;;;;;;5053855;28;20213;-66
2023/08/14 08:17:08;;;;;;;3.83;3.45;;;;;;;;;;5058292;28;20229;-66
2023/08/14 08:19:36;;;;;;;3.53;3.22;;;;;;;;;;5061584;28;20306;-63
2023/08/14 08:22:03;;;;;;;5.28;3.55;;;;;;;;;;5056627;28;20209;-66
2023/08/14 08:24:30;;;;;;;3.63;3.33;;;;;;;;;;5060796;28;20201;-66
2023/08/14 08:26:57;;;;;;;3.20;2.92;;;;;;;;;;5058639;28;20217;-67
2023/08/14 08:29:25;;;;;;;3.88;3.22;;;;;;;;;;5054939;28;20209;-67
2023/08/14 08:31:52;;;;;;;3.70;3.40;;;;;;;;;;5059667;28;20452;-65
2023/08/14 08:34:19;;;;;;;4.00;3.70;;;;;;;;;;5056076;28;20578;-64
2023/08/14 08:36:47;;;;;;;5.20;3.15;;;;;;;;;;5060885;28;20226;-65
2023/08/14 08:39:14;;;;;;;3.70;3.30;;;;;;;;;;5056386;28;20276;-65
2023/08/14 08:41:46;;;;;;;4.57;3.25;;;;;;;;;;5056331;28;20549;-65
2023/08/14 08:44:23;;;;;;;3.40;2.85;;;;;;;;;;5060199;28;20217;-68
2023/08/14 08:46:53;;;;;;;3.22;2.80;;;;;;;;;;5059451;28;20247;-67
2023/08/14 08:49:21;;;;;;;3.78;3.10;;;;;;;;;;5063548;28;20208;-66
2023/08/14 08:51:49;;;;;;;5.13;3.30;;;;;;;;;;5058130;28;20444;-67
2023/08/14 08:54:17;;;;;;;2.85;2.65;;;;;;;;;;5057421;28;20194;-65
2023/08/14 08:56:44;;;;;;;3.55;3.00;;;;;;;;;;5058304;28;20232;-66
2023/08/14 08:59:12;;;;;;;4.15;2.85;;;;;;;;;;5060858;28;20328;-66
2023/08/14 09:01:39;;;;;;;4.55;3.38;;;;;;;;;;5061792;28;20232;-65
2023/08/14 09:04:07;;;;;;;3.47;3.17;;;;;;;;;;5058290;28;20271;-66
2023/08/14 09:06:34;;;;;;;3.83;3.05;;;;;;;;;;5056448;28;20221;-67
2023/08/14 09:09:02;;;;;;;3.35;2.95;;;;;;;;;;5054733;28;20254;-64
2023/08/14 09:11:30;;;;;;;3.50;3.20;;;;;;;;;;5060767;28;20205;-64
2023/08/14 09:13:57;;;;;;;3.75;3.45;;;;;;;;;;5056924;28;20213;-65
2023/08/14 09:16:25;;;;;;;4.18;3.55;;;;;;;;;;5061580;28;20282;-66
2023/08/14 09:18:52;;;;;;;3.58;3.25;;;;;;;;;;5054976;28;20213;-64
2023/08/14 09:21:19;;;;;;;4.43;3.10;;;;;;;;;;5054657;28;20232;-65
2023/08/14 09:23:47;;;;;;;4.47;3.50;;;;;;;;;;5060448;28;20205;-66
2023/08/14 09:26:15;;;;;;;3.50;3.20;;;;;;;;;;5055472;28;20226;-66
2023/08/14 09:28:42;;;;;;;3.90;3.38;;;;;;;;;;5058652;28;20255;-66
2023/08/14 09:31:10;;;;;;;4.68;3.08;;;;;;;;;;5059154;28;20206;-64
2023/08/14 09:33:38;;;;;;;3.50;3.17;;;;;;;;;;5060607;28;20248;-68
2023/08/14 09:36:06;;;;;;;3.70;3.40;;;;;;;;;;5053773;28;20236;-63
2023/08/14 09:38:33;;;;;;;3.65;3.35;;;;;;;;;;5058527;28;20209;-65
2023/08/14 09:41:01;;;;;;;3.33;3.03;;;;;;;;;;5061315;28;20592;-68
2023/08/14 09:43:30;;;;;;;4.95;3.10;;;;;;;;;;5063418;28;20202;-68
2023/08/14 09:45:58;;;;;;;3.42;3.05;;;;;;;;;;5064145;28;20653;-65
2023/08/14 09:48:40;;;;;;;4.18;3.63;;;;;;;;;;5063751;28;20197;-65
2023/08/14 09:51:15;;;;;;;4.75;3.22;;;;;;;;;;5060402;28;20305;-64
2023/08/14 09:53:44;;;;;;;3.72;3.38;;;;;;;;;;5064636;28;20233;-65
2023/08/14 09:56:13;;;;;;;3.92;3.55;;;;;;;;;;5066335;28;20608;-69
2023/08/14 09:58:41;;;;;;;3.35;3.05;;;;;;;;;;5062382;28;20209;-66
2023/08/14 10:01:12;;;;;;;3.35;2.92;;;;;;;;;;5061143;28;20229;-69
2023/08/14 10:03:41;;;;;;;3.47;3.17;;;;;;;;;;5063605;28;20577;-65
2023/08/14 10:06:11;;;;;;;3.58;3.30;;;;;;;;;;5060439;28;20274;-65
2023/08/14 10:08:39;;;;;;;3.60;3.17;;;;;;;;;;5061782;28;20206;-67
2023/08/14 10:11:08;;;;;;;4.05;3.75;;;;;;;;;;5059634;28;20590;-68
2023/08/14 10:13:45;;;;;;;4.53;3.38;;;;;;;;;;5059400;28;20372;-67
2023/08/14 10:16:14;;;;;;;3.72;3.08;;;;;;;;;;5060896;28;20820;-67
2023/08/14 10:18:42;;;;;;;3.60;3.30;;;;;;;;;;5062180;28;20229;-66
2023/08/14 10:21:13;;;;;;;6.13;3.15;;;;;;;;;;5062111;28;20221;-66
2023/08/14 10:23:40;;;;;;;4.55;3.50;;;;;;;;;;5061940;28;20202;-65
2023/08/14 10:26:08;;;;;;;3.50;3.25;;;;;;;;;;5055734;28;20713;-66
2023/08/14 10:28:36;;;;;;;3.80;3.33;;;;;;;;;;5074105;28;20205;-63
2023/08/14 10:31:03;;;;;;;3.50;3.03;;;;;;;;;;5066430;28;20259;-65
2023/08/14 10:33:31;;;;;;;3.95;3.20;;;;;;;;;;5063164;28;20305;-66
2023/08/14 10:35:58;;;;;;;3.65;3.35;;;;;;;;;;5061676;28;20248;-67
2023/08/14 10:38:39;;;;;;;4.00;3.63;;;;;;;;;;5060316;28;20205;-68
2023/08/14 10:41:08;;;;;;;3.88;3.33;;;;;;;;;;5061133;28;20373;-68
2023/08/14 10:43:35;;;;;;;4.40;3.17;;;;;;;;;;5060392;28;20198;-65
2023/08/14 10:46:10;;;;;;;4.30;2.90;;;;;;;;;;5058968;28;20229;-66
2023/08/14 10:48:38;;;;;;;3.30;3.08;;;;;;;;;;5061665;28;20225;-66
2023/08/14 10:51:08;;;;;;;3.53;3.25;;;;;;;;;;5060595;28;21056;-66
2023/08/14 10:53:37;;;;;;;4.15;3.45;;;;;;;;;;5060308;28;20225;-65
2023/08/14 10:56:07;;;;;;;3.92;3.40;;;;;;;;;;5058641;28;20234;-68
2023/08/14 10:58:35;;;;;;;3.28;3.08;;;;;;;;;;5057783;28;20533;-67
2023/08/14 11:01:04;;;;;;;3.53;3.05;;;;;;;;;;5062156;28;20229;-66
2023/08/14 11:03:54;;;;;;;3.30;3.10;;;;;;;;;;5064034;28;20224;-67
2023/08/14 11:06:23;;;;;;;5.57;3.15;;;;;;;;;;5058641;28;20225;-64
2023/08/14 11:08:57;;;;;;;3.45;2.85;;;;;;;;;;5056532;28;20705;-65
2023/08/14 11:11:24;;;;;;;5.40;3.38;;;;;;;;;;5059870;28;20681;-66
2023/08/14 11:13:52;;;;;;;5.25;3.10;;;;;;;;;;5058806;28;20198;-64
2023/08/14 11:16:20;;;;;;;4.00;2.95;;;;;;;;;;5060691;28;20226;-66
2023/08/14 11:18:48;;;;;;;3.60;3.10;;;;;;;;;;5057343;28;20279;-65
2023/08/14 11:21:15;;;;;;;3.50;3.20;;;;;;;;;;5056931;28;20213;-68
2023/08/14 11:23:57;;;;;;;3.75;3.45;;;;;;;;;;5059014;28;20201;-67
2023/08/14 11:26:28;;;;;;;3.20;2.85;;;;;;;;;;5064569;28;20877;-67
2023/08/14 11:28:55;;;;;;;4.03;3.28;;;;;;;;;;5062979;28;20263;-67
2023/08/14 11:31:22;;;;;;;3.55;3.17;;;;;;;;;;5060377;28;20212;-69
2023/08/14 11:34:01;;;;;;;4.82;3.72;;;;;;;;;;5060642;28;20220;-68
2023/08/14 11:36:28;;;;;;;4.75;3.70;;;;;;;;;;5061530;28;20229;-66
2023/08/14 11:39:01;;;;;;;3.78;3.47;;;;;;;;;;5059483;28;20197;-68
2023/08/14 11:41:28;;;;;;;4.90;3.38;;;;;;;;;;5057559;28;20232;-67
2023/08/14 11:43:58;;;;;;;4.00;3.00;;;;;;;;;;5069062;28;20357;-67
2023/08/14 11:46:25;;;;;;;3.60;3.30;;;;;;;;;;5059757;28;20275;-69
2023/08/14 11:48:53;;;;;;;4.93;3.05;;;;;;;;;;5058729;28;20280;-68
2023/08/14 11:51:21;;;;;;;4.18;3.75;;;;;;;;;;5057865;28;20209;-65
2023/08/14 11:53:48;;;;;;;3.63;3.33;;;;;;;;;;5056081;28;20202;-69
2023/08/14 11:56:15;;;;;;;5.10;3.08;;;;;;;;;;5062056;28;20217;-68
2023/08/14 11:58:43;;;;;;;3.35;3.10;;;;;;;;;;5058994;28;20671;-67
2023/08/14 12:01:20;;;;;;;3.70;3.40;;;;;;;;;;5059387;28;20608;-67
2023/08/14 12:03:48;;;;;;;4.57;3.78;;;;;;;;;;5056080;28;20274;-68
2023/08/14 12:06:15;;;;;;;3.83;3.40;;;;;;;;;;5054192;28;20225;-67
2023/08/14 12:08:42;;;;;;;4.25;3.78;;;;;;;;;;5061101;28;20208;-65
2023/08/14 12:11:15;;;;;;;3.90;3.60;;;;;;;;;;5061031;28;20201;-67
2023/08/14 12:13:50;;;;;;;4.15;3.38;;;;;;;;;;5057940;28;20201;-68
2023/08/14 12:16:20;;;;;;;3.72;3.42;;;;;;;;;;5059289;28;20319;-67
2023/08/14 12:18:49;;;;;;;5.43;3.60;;;;;;;;;;5062474;28;20216;-67
2023/08/14 12:21:16;;;;;;;5.40;3.83;;;;;;;;;;5056151;28;20707;-66
2023/08/14 12:23:45;;;;;;;4.53;3.50;;;;;;;;;;5059886;28;20286;-64
2023/08/14 12:26:12;;;;;;;4.10;3.47;;;;;;;;;;5058361;28;20248;-66
2023/08/14 12:28:40;;;;;;;4.68;4.00;;;;;;;;;;5058819;28;20289;-69
2023/08/14 12:31:08;;;;;;;5.82;4.30;;;;;;;;;;5058029;28;20209;-65
2023/08/14 12:33:35;;;;;;;6.38;4.50;;;;;;;;;;5053722;28;20211;-65
2023/08/14 12:36:03;;;;;;;6.55;5.30;;;;;;;;;;5059392;28;20703;-66
2023/08/14 12:38:30;;;;;;;5.57;4.03;;;;;;;;;;5061774;28;20217;-66
2023/08/14 12:40:57;;;;;;;4.40;3.83;;;;;;;;;;5052459;28;20222;-66
2023/08/14 12:43:24;;;;;;;4.22;3.92;;;;;;;;;;5063041;28;20750;-66
2023/08/14 12:46:08;;;;;;;5.85;5.20;;;;;;;;;;5056120;28;20226;-66
2023/08/14 12:48:36;;;;;;;4.30;3.63;;;;;;;;;;5058775;28;20198;-65
2023/08/14 12:51:04;;;;;;;4.57;3.17;;;;;;;;;;5059974;28;20614;-65
2023/08/14 12:53:31;;;;;;;8.20;3.17;;;;;;;;;;5062575;28;20230;-66
2023/08/14 12:55:58;;;;;;;4.00;3.60;;;;;;;;;;5063189;28;20225;-66
2023/08/14 12:58:28;;;;;;;3.92;3.53;;;;;;;;;;5059174;28;20204;-68
2023/08/14 13:00:56;;;;;;;4.47;3.47;;;;;;;;;;5051950;28;20295;-65
2023/08/14 13:03:31;;;;;;;5.60;3.20;;;;;;;;;;5059600;28;20658;-69
2023/08/14 13:06:06;;;;;;;3.72;2.50;;;;;;;;;;5056321;28;21568;-64
2023/08/14 13:08:34;;;;;;;4.68;2.50;;;;;;;;;;5063222;28;20205;-66
2023/08/14 13:11:01;;;;;;;3.90;2.60;;;;;;;;;;5056703;28;20567;-68
2023/08/14 13:13:29;;;;;;;6.25;3.22;;;;;;;;;;5074417;28;20232;-65
2023/08/14 13:15:56;;;;;;;4.93;3.30;;;;;;;;;;5058404;28;20598;-66
2023/08/14 13:18:24;;;;;;;7.80;3.10;;;;;;;;;;5061062;28;20205;-65
2023/08/14 13:20:51;;;;;;;5.03;2.50;;;;;;;;;;5054950;28;20610;-66
2023/08/14 13:23:18;;;;;;;5.18;2.50;;;;;;;;;;5057655;28;20588;-65
2023/08/14 13:25:46;;;;;;;3.25;2.40;;;;;;;;;;5060538;28;20649;-66
2023/08/14 13:28:13;;;;;;;4.90;2.60;;;;;;;;;;5061872;28;20239;-64
2023/08/14 13:30:40;;;;;;;4.35;2.72;;;;;;;;;;5056875;28;20445;-66
2023/08/14 13:33:12;;;;;;;7.50;2.83;;;;;;;;;;5060449;28;20211;-66
2023/08/14 13:35:39;;;;;;;3.63;3.00;;;;;;;;;;5063166;28;20364;-65
2023/08/14 13:38:07;;;;;;;3.88;2.67;;;;;;;;;;5059714;28;20214;-65
2023/08/14 13:40:35;;;;;;;4.45;2.70;;;;;;;;;;5061138;28;20197;-67
2023/08/14 13:43:03;;;;;;;4.28;2.63;;;;;;;;;;5058616;28;20213;-65
2023/08/14 13:45:30;;;;;;;4.53;2.78;;;;;;;;;;5057944;28;20614;-66
2023/08/14 13:47:58;;;;;;;3.45;2.60;;;;;;;;;;5060001;28;20256;-66
2023/08/14 13:50:27;;;;;;;2.78;2.28;;;;;;;;;;5057619;28;20284;-66
2023/08/14 13:52:57;;;;;;;2.85;2.00;;;;;;;;;;5055299;28;20258;-65
2023/08/14 13:55:27;;;;;;;3.03;1.85;;;;;;;;;;5061994;28;20196;-66
2023/08/14 13:57:55;;;;;;;3.83;2.25;;;;;;;;;;5058273;28;20825;-66
2023/08/14 14:00:24;;;;;;;4.10;2.53;;;;;;;;;;5057483;28;20293;-67
2023/08/14 14:02:56;;;;;;;2.70;2.40;;;;;;;;;;5057151;28;20637;-69
2023/08/14 14:05:24;;;;;;;5.80;2.78;;;;;;;;;;5057706;28;20199;-68
2023/08/14 14:07:51;;;;;;;3.63;2.28;;;;;;;;;;5056114;28;20202;-66
2023/08/14 14:10:23;;;;;;;2.90;2.58;;;;;;;;;;5056829;28;20691;-68
2023/08/14 14:12:50;;;;;;;2.95;2.75;;;;;;;;;;5062748;28;20324;-68
2023/08/14 14:15:20;;;;;;;3.30;3.00;;;;;;;;;;5056898;28;20207;-67
2023/08/14 14:17:47;;;;;;;2.90;2.65;;;;;;;;;;5058258;28;20263;-65
2023/08/14 14:20:15;;;;;;;2.92;2.50;;;;;;;;;;5056203;28;20213;-66
2023/08/14 14:22:43;;;;;;;3.65;2.40;;;;;;;;;;5060048;28;20311;-66
2023/08/14 14:25:12;;;;;;;2.78;2.58;;;;;;;;;;5051608;28;20209;-64
2023/08/14 14:27:40;;;;;;;3.63;2.38;;;;;;;;;;5066917;28;20217;-66
2023/08/14 14:30:07;;;;;;;3.33;3.03;;;;;;;;;;5059955;28;20202;-66
2023/08/14 14:32:35;;;;;;;2.90;2.60;;;;;;;;;;5058516;28;20206;-67
2023/08/14 14:35:03;;;;;;;2.60;2.40;;;;;;;;;;5062124;28;20633;-66
2023/08/14 14:37:30;;;;;;;4.53;2.42;;;;;;;;;;5067204;28;20339;-67
2023/08/14 14:39:57;;;;;;;3.60;2.42;;;;;;;;;;5069291;28;20270;-66
2023/08/14 14:42:25;;;;;;;2.80;2.50;;;;;;;;;;5060542;28;20839;-67
2023/08/14 14:44:56;;;;;;;2.95;2.60;;;;;;;;;;5064497;28;20200;-65